Leesburg International Airport
KLEE : now visible

Airfield :











YOU CAN JOIN US ON...

 
LOGIN :

Register | Disclaimer

   EN    FR    IT 

 









Legend :    VFR   Marginal VFR   IFR   Intensive IFR   Very Intensive IFR
Visi :
Ceiling :
>= 8 km
>= 3000ft
5 to 8 km
1000 to 3000 ft
1500m to 5 km
500 to 1000 ft
800 to 1500m
200 to 500 ft
< 800m
< 200 ft
Symbols :   Thunderstorms  Fog  Heavy snow  Heavy precipitations  Wind > 20 kt






- Airport Elevation : 76 ft


KLEE - Leesburg International

CURRENT METAR :
  • 192053Z 00000KT 3SM BR FEW018 SCT026 BKN055 23/23 A3003 RMK AO2 LTG DSNT W-N SLP169 P0036 60051 T02280228 55004

EXPIRED METARs :
  • 192043Z 00000KT 2 1/2SM BR FEW016 BKN025 OVC043 22/22 A3004 RMK AO2 LTG DSNT NW-NE P0036 T02220222
  • 192028Z VRB04KT 3/4SM BR SCT020 BKN026 OVC039 23/22 A3005 RMK AO2 LTG DSNT NE AND NW P0017 T02280222
  • 192023Z 15007KT 1 3/4SM BR FEW015 BKN030 OVC039 23/22 A3005 RMK AO2 LTG DSNT N AND NE P0009 T02280222
  • 192014Z 00000KT 3SM BR FEW015 BKN035 OVC065 23/23 A3004 RMK AO2 LTG DSNT N AND NE AND SW P0003 T02330228
  • 191953Z 10006KT 4SM BR FEW027 BKN045 OVC085 24/24 A3005 RMK AO2 LTG DSNT N AND NE SLP173 P0014 T02440239
  • 191940Z 07008G17KT 1 3/4SM VCTS BR SCT036 BKN055 BKN080 24/23 A3004 RMK AO2 LTG DSNT N-SE P0009 T02440233
  • 191930Z 05011KT 5SM VCTS HZ FEW018 SCT047 BKN080 26/23 A3004 RMK AO2 LTG DSNT SE P0001 T02610233
  • 191853Z 03014KT 6SM HZ SCT027 BKN065 28/23 A3005 RMK AO2 LTG DSNT SE RAB10E16 SLP173 P0001 T02780228

TAF KLEE
Valid from the 19 at 21:00 until the 20 at 18:00 UTC


192128Z 1921/2018 01006KT P6SM VCSH FEW025 SCT040 BKN180
FM200000 04006KT P6SM FEW035 BKN180
FM201500 07009KT P6SM VCSH SCT035 SCT060 BKN180
KZJX FIR / North America



MET'MAP, your aeronautical weather chart ! - Copyright ORBIFLY December 2007 - Disclaimer

ORBIFLY MET'MAP TEAM :

Programming & Development : Alexandra Zaïnal
Concept & original design : Baudouin d'Aumeries
Assistance for programming : Marc-Olivier Méhu
Technical & hardware support : Manuel Goepfert

Contact : metmap@orbifly.com




SOURCES & CREDITS :

   NOAA       Earth
Advisory